createdAt,value
2018-12-11T00:04:16.566Z,3.7
2018-12-11T00:09:43.657Z,3.7
2018-12-11T00:15:10.804Z,3.7
2018-12-11T00:20:38.831Z,3.7
2018-12-11T00:26:05.972Z,3.7
2018-12-11T00:31:33.989Z,3.6
2018-12-11T00:37:25.840Z,3.6
2018-12-11T00:42:29.156Z,3.6
2018-12-11T00:47:56.257Z,3.6
2018-12-11T00:53:23.327Z,3.5
2018-12-11T01:11:28.386Z,3.4
2018-12-11T01:11:28.403Z,3.4
2018-12-11T01:15:11.583Z,3.3
2018-12-11T01:20:39.669Z,3.3
2018-12-11T01:26:06.714Z,3.3
2018-12-11T01:31:33.840Z,3.2
2018-12-11T01:37:00.828Z,3.2
2018-12-11T01:42:27.868Z,3.2
2018-12-11T01:47:54.968Z,3.1
2018-12-11T01:53:22.972Z,3.1
2018-12-11T01:58:51.013Z,3.1
2018-12-11T02:04:18.060Z,3
2018-12-11T02:09:45.137Z,3
2018-12-11T02:15:13.166Z,2.9
2018-12-11T02:20:40.231Z,2.9
2018-12-11T02:26:08.247Z,2.9
2018-12-11T02:58:52.468Z,2.8
2018-12-11T03:04:19.430Z,2.8
2018-12-11T03:20:43.753Z,2.7
2018-12-11T03:20:43.789Z,2.7
2018-12-11T03:20:43.808Z,2.8
2018-12-11T04:05:28.248Z,2.5
2018-12-11T04:09:51.479Z,2.5
2018-12-11T04:15:19.484Z,2.5
2018-12-11T04:20:47.594Z,2.4
2018-12-11T04:26:14.454Z,2.4
2018-12-11T04:31:42.446Z,2.4
2018-12-11T04:37:10.536Z,2.3
2018-12-11T04:42:37.405Z,2.3
2018-12-11T04:48:05.376Z,2.3
2018-12-11T04:53:32.367Z,2.2
2018-12-11T04:59:00.476Z,2.2
2018-12-11T05:04:28.330Z,2.1
2018-12-11T05:09:56.315Z,2.1
2018-12-11T05:15:23.267Z,2.1
2018-12-11T05:20:50.259Z,2
2018-12-11T05:26:17.208Z,2
2018-12-11T05:31:45.174Z,2
2018-12-11T05:37:13.133Z,2
2018-12-11T05:42:40.116Z,2
2018-12-11T05:48:08.134Z,2
2018-12-11T05:53:36.059Z,2
2018-12-11T05:59:02.997Z,2
2018-12-11T06:04:29.927Z,2
2018-12-11T06:09:56.935Z,2
2018-12-11T06:15:24.892Z,2
2018-12-11T06:20:52.847Z,2
2018-12-11T06:26:20.871Z,1.9
2018-12-11T06:31:48.758Z,1.9
2018-12-11T06:37:16.699Z,1.9
2018-12-11T06:42:43.740Z,1.9
2018-12-11T06:48:10.691Z,1.9
2018-12-11T06:53:37.598Z,1.8
2018-12-11T06:59:05.494Z,1.8
2018-12-11T07:04:32.471Z,1.8
2018-12-11T07:10:00.611Z,1.8
2018-12-11T07:15:28.325Z,1.8
2018-12-11T07:20:56.267Z,1.8
2018-12-11T07:26:24.231Z,1.8
2018-12-11T07:31:51.162Z,1.8
2018-12-11T07:37:18.088Z,1.7
2018-12-11T07:42:46.019Z,1.7
2018-12-11T07:48:12.950Z,1.7
2018-12-11T07:53:40.928Z,1.8
2018-12-11T07:59:07.851Z,1.8
2018-12-11T08:04:35.799Z,1.8
2018-12-11T08:10:02.779Z,1.8
2018-12-11T08:15:29.678Z,1.8
2018-12-11T08:20:56.624Z,1.8
2018-12-11T08:26:23.598Z,1.9
2018-12-11T08:31:51.533Z,1.9
2018-12-11T08:37:18.478Z,2
2018-12-11T08:42:46.470Z,2
2018-12-11T08:48:13.785Z,2.1
2018-12-11T08:53:40.544Z,2.1
2018-12-11T08:59:08.384Z,2.1
2018-12-11T09:04:36.331Z,2.1
2018-12-11T09:10:03.290Z,2.2
2018-12-11T09:15:31.272Z,2.2
2018-12-11T09:20:59.238Z,2.3
2018-12-11T09:26:28.278Z,2.4
2018-12-11T09:31:54.225Z,2.5
2018-12-11T09:37:22.203Z,2.5
2018-12-11T09:42:50.224Z,2.6
2018-12-11T09:48:17.199Z,2.6
2018-12-11T09:53:44.216Z,2.7
2018-12-11T09:59:11.248Z,2.8
2018-12-11T10:04:38.281Z,2.8
2018-12-11T10:10:05.239Z,2.9
2018-12-11T10:15:33.275Z,3
2018-12-11T10:21:01.301Z,3
2018-12-11T10:26:29.364Z,3.1
2018-12-11T10:31:56.520Z,3.2
2018-12-11T10:37:23.414Z,3.2
2018-12-11T10:42:50.526Z,3.3
2018-12-11T10:48:18.491Z,3.3
2018-12-11T10:53:45.564Z,3.4
2018-12-11T10:59:12.633Z,3.4
2018-12-11T11:04:40.757Z,3.5
2018-12-11T11:10:08.785Z,3.5
2018-12-11T11:15:36.870Z,3.6
2018-12-11T11:21:04.912Z,3.6
2018-12-11T11:26:32.003Z,3.7
2018-12-11T11:32:00.065Z,3.7
2018-12-11T11:37:28.178Z,3.8
2018-12-11T11:42:55.260Z,3.8
2018-12-11T11:48:22.329Z,3.8
2018-12-11T11:53:49.456Z,3.9
2018-12-11T11:59:17.551Z,3.9
2018-12-11T12:04:45.642Z,4
2018-12-11T12:10:12.764Z,4
2018-12-11T12:15:40.911Z,4.1
2018-12-11T12:21:07.992Z,4.1
2018-12-11T12:26:36.080Z,4.2
2018-12-11T12:32:03.213Z,4.1
2018-12-11T12:37:30.317Z,4.1
2018-12-11T12:42:57.413Z,4.1
2018-12-11T12:48:24.566Z,4.1
2018-12-11T12:53:51.650Z,4.1
2018-12-11T12:59:18.820Z,4.1
2018-12-11T13:04:45.946Z,4.1
2018-12-11T13:10:12.984Z,4.1
2018-12-11T13:15:40.103Z,4.1
2018-12-11T13:21:08.227Z,4.2
2018-12-11T13:26:35.391Z,4.2
2018-12-11T13:32:02.472Z,4.2
2018-12-11T13:37:30.663Z,4.2
2018-12-11T13:42:57.692Z,4.1
2018-12-11T13:48:24.780Z,4.1
2018-12-11T13:53:51.883Z,4.1
2018-12-11T13:59:18.995Z,4
2018-12-11T14:04:47.118Z,4
2018-12-11T14:10:14.349Z,3.9
2018-12-11T14:15:41.332Z,3.9
2018-12-11T14:21:09.462Z,3.9
2018-12-11T14:26:36.720Z,3.9
2018-12-11T14:32:03.617Z,3.9
2018-12-11T14:37:31.726Z,3.9
2018-12-11T14:42:59.847Z,3.8
2018-12-11T14:48:26.981Z,3.8
2018-12-11T14:53:55.524Z,3.8
2018-12-11T14:59:23.119Z,3.8
2018-12-11T15:04:50.252Z,3.8
2018-12-11T15:10:18.305Z,3.8
2018-12-11T15:15:45.419Z,3.8
2018-12-11T15:21:12.508Z,3.8
2018-12-11T15:26:40.623Z,3.8
2018-12-11T15:32:08.676Z,3.8
2018-12-11T15:37:36.726Z,3.8
2018-12-11T15:43:03.903Z,3.7
2018-12-11T15:48:31.848Z,3.7
2018-12-11T15:53:57.991Z,3.7
2018-12-11T15:59:26.068Z,3.7
2018-12-11T16:04:53.153Z,3.7
2018-12-11T16:10:21.237Z,3.7
2018-12-11T16:15:48.296Z,3.7
2018-12-11T16:21:15.405Z,3.7
2018-12-11T16:26:42.478Z,3.7
2018-12-11T16:32:10.643Z,3.7
2018-12-11T16:37:37.562Z,3.7
2018-12-11T16:43:05.652Z,3.7
2018-12-11T16:48:33.773Z,3.7
2018-12-11T16:54:00.826Z,3.7
2018-12-11T16:59:27.909Z,3.7
2018-12-11T17:04:56.005Z,3.6
2018-12-11T17:10:23.088Z,3.6
2018-12-11T17:15:51.114Z,3.6
2018-12-11T17:21:18.206Z,3.6
2018-12-11T17:26:47.714Z,3.6
2018-12-11T17:32:14.419Z,3.6
2018-12-11T17:37:44.418Z,3.6
2018-12-11T17:43:34.607Z,3.6
2018-12-11T17:48:41.507Z,3.6
2018-12-11T17:54:05.680Z,3.6
2018-12-11T17:59:33.753Z,3.5
2018-12-11T18:05:00.829Z,3.5
2018-12-11T18:10:28.872Z,3.5
2018-12-11T18:15:55.939Z,3.5
2018-12-11T18:21:23.993Z,3.5
2018-12-11T18:26:51.048Z,3.5
2018-12-11T18:32:18.101Z,3.5
2018-12-11T18:37:46.157Z,3.5
2018-12-11T18:43:13.261Z,3.5
2018-12-11T18:48:41.325Z,3.5
2018-12-11T18:54:08.370Z,3.5
2018-12-11T18:59:36.465Z,3.5
2018-12-11T19:05:20.884Z,3.5
2018-12-11T19:10:30.621Z,3.5
2018-12-11T19:15:58.649Z,3.5
2018-12-11T19:21:25.810Z,3.5
2018-12-11T19:26:52.776Z,3.5
2018-12-11T19:32:19.819Z,3.5
2018-12-11T19:37:46.908Z,3.5
2018-12-11T19:43:14.998Z,3.5
2018-12-11T19:48:43.045Z,3.5
2018-12-11T19:54:11.100Z,3.5
2018-12-11T19:59:38.149Z,3.4
2018-12-11T20:05:06.282Z,3.4
2018-12-11T20:10:34.296Z,3.4
2018-12-11T20:16:02.344Z,3.4
2018-12-11T20:21:30.399Z,3.4
2018-12-11T20:26:58.473Z,3.4
2018-12-11T20:32:25.506Z,3.4
2018-12-11T20:37:53.553Z,3.4
2018-12-11T20:43:20.639Z,3.4
2018-12-11T20:48:47.657Z,3.4
2018-12-11T20:54:15.717Z,3.4
2018-12-11T20:59:43.779Z,3.4
2018-12-11T21:05:11.891Z,3.4
2018-12-11T21:10:38.899Z,3.4
2018-12-11T21:16:10.911Z,3.3
2018-12-11T21:21:33.980Z,3.4
2018-12-11T21:27:02.072Z,3.4
2018-12-11T21:32:29.109Z,3.4
2018-12-11T21:37:57.196Z,3.5
2018-12-11T21:43:24.264Z,3.5
2018-12-11T21:48:51.608Z,3.6
2018-12-11T21:54:18.351Z,3.6
2018-12-11T21:59:46.692Z,3.6
2018-12-11T22:05:14.479Z,3.5
2018-12-11T22:10:41.531Z,3.5
2018-12-11T22:16:09.558Z,3.4
2018-12-11T22:21:37.601Z,3.4
2018-12-11T22:27:04.652Z,3.4
2018-12-11T22:32:32.703Z,3.4
2018-12-11T22:37:59.769Z,3.4
2018-12-11T22:43:40.889Z,3.5
2018-12-11T22:48:54.947Z,3.5
2018-12-11T22:54:21.956Z,3.5
2018-12-11T22:59:49.012Z,3.6
2018-12-11T23:05:16.123Z,3.6
2018-12-11T23:10:43.515Z,3.6
2018-12-11T23:16:10.205Z,3.5
2018-12-11T23:21:37.265Z,3.5
2018-12-11T23:27:05.319Z,3.5
2018-12-11T23:32:33.387Z,3.5
2018-12-11T23:38:01.440Z,3.5
2018-12-11T23:43:28.523Z,3.5
2018-12-11T23:48:56.918Z,3.5
2018-12-11T23:54:23.604Z,3.5
2018-12-11T23:59:51.686Z,3.4
